METAR AND TAF INFORMATION
METAR FOR SGAS
ADDS - METARS form results

(1253 UTC 04 October 2022)
Data provider http://aviationweather.gov/metar/data/
 
METAR text: SGAS 041230Z 11006KT CAVOK 24/10 Q1014
Conditions at: SGAS (ASUNCION/SILVIO , PY) observed 1230 UTC 04 October 2022
Temperature: 24.0°C (75°F)
Dewpoint: 10.0°C (50°F) [RH = 41%]
Pressure (altimeter): 29.94 inches Hg (1014.0 mb)
Winds: from the ESE (110 degrees) at 7 MPH (6 knots; 3.1 m/s)
Visibility: 6 or more miles (10+ km)
Ceiling: ceiling and visibility are OK
Clouds: unknown
Weather: no significant weather observed at this time

METAR text: SGAS 041200Z 11004KT 060V160 CAVOK 23/10 Q1014
Conditions at: SGAS (ASUNCION/SILVIO , PY) observed 1200 UTC 04 October 2022
Temperature: 23.0°C (73°F)
Dewpoint: 10.0°C (50°F) [RH = 44%]
Pressure (altimeter): 29.94 inches Hg (1014.0 mb)
Winds: from the ESE (110 degrees) at 5 MPH (4 knots; 2.1 m/s)
Visibility: 6 or more miles (10+ km)
Ceiling: ceiling and visibility are OK
Clouds: unknown
Weather: no significant weather observed at this time

Forecast for: SGAS (ASUNCION/SILVIO , PY)
Text: TAF SGAS 040937Z 0412/0512 00000KT CAVOK TX30/0419Z TN17/0510Z
Forecast period: 1200 to 1400 UTC 04 October 2022
Forecast type: FROM: standard forecast or significant change
Winds: calm
Visibility: 6 or more miles (10+ km)
Ceiling: unknown
Clouds: missing
Weather: no significant weather forecast for this period
Text: BECMG 0414/0418 07010KT 9999 SCT027
Forecast period: 1400 UTC 04 October 2022 to 1200 UTC 05 October 2022
Forecast type: BECOMING: Conditions expected to become as follows by 1800 UTC 04 October 2022
Winds: from the ENE (70 degrees) at 12 MPH (10 knots; 5.1 m/s)
Visibility: 6 or more miles (10+ km)
Ceiling: at least 12,000 feet AGL
Clouds: scattered clouds at 2700 feet AGL
Weather: no significant weather forecast for this period

 AIRPORT MAP

 RUNWAY INFORMATION

 AIRPORT FREQUENCIES
Type APP Name ASUNCION A Frequency 119.7 MHZ
Type CTR Name ASUNCION C Frequency 128.4 MHZ
Type GND Name GND Frequency 121.9 MHZ
Type RDO Name ASUNCION R Frequency 126.9 MHZ
Type RDO Name ASUNCION R Frequency 1002.4 MHZ
Type TWR Name ASUNCION T Frequency 118.1 MHZ

 AIRPORT NEAR NAVIGATION AIDS